sensor_id;sensor_type;location;lat;lon;timestamp;pressure;altitude;pressure_sealevel;temperature;humidity
60845;BME280;47984;51.250;6.712;2022-07-21T00:00:24;101571.06;;;19.57;46.60
60845;BME280;47984;51.250;6.712;2022-07-21T00:02:52;101566.81;;;19.54;45.83
60845;BME280;47984;51.250;6.712;2022-07-21T00:05:20;101575.81;;;19.50;46.45
60845;BME280;47984;51.250;6.712;2022-07-21T00:07:50;101570.63;;;19.48;46.46
60845;BME280;47984;51.250;6.712;2022-07-21T00:10:18;101565.44;;;19.47;46.37
60845;BME280;47984;51.250;6.712;2022-07-21T00:13:38;101567.22;;;19.46;46.33
60845;BME280;47984;51.250;6.712;2022-07-21T00:16:11;101568.41;;;19.41;45.79
60845;BME280;47984;51.250;6.712;2022-07-21T00:18:48;101573.84;;;19.38;46.43
60845;BME280;47984;51.250;6.712;2022-07-21T00:21:18;101573.06;;;19.36;46.33
60845;BME280;47984;51.250;6.712;2022-07-21T00:23:48;101575.78;;;19.34;46.34
60845;BME280;47984;51.250;6.712;2022-07-21T00:26:18;101575.03;;;19.32;47.07
60845;BME280;47984;51.250;6.712;2022-07-21T00:28:48;101579.44;;;19.32;46.84
60845;BME280;47984;51.250;6.712;2022-07-21T00:31:18;101578.66;;;19.29;46.77
60845;BME280;47984;51.250;6.712;2022-07-21T00:33:48;101574.41;;;19.27;47.28
60845;BME280;47984;51.250;6.712;2022-07-21T00:36:20;101571.94;;;19.24;46.85
60845;BME280;47984;51.250;6.712;2022-07-21T00:38:48;101563.34;;;19.20;47.01
60845;BME280;47984;51.250;6.712;2022-07-21T00:41:15;101565.22;;;19.18;47.22
60845;BME280;47984;51.250;6.712;2022-07-21T00:43:43;101572.34;;;19.16;47.80
60845;BME280;47984;51.250;6.712;2022-07-21T00:46:10;101571.56;;;19.14;46.93
60845;BME280;47984;51.250;6.712;2022-07-21T00:48:37;101578.75;;;19.11;47.42
60845;BME280;47984;51.250;6.712;2022-07-21T00:51:05;101571.00;;;19.07;47.29
60845;BME280;47984;51.250;6.712;2022-07-21T00:53:32;101570.31;;;19.04;47.77
60845;BME280;47984;51.250;6.712;2022-07-21T00:56:00;101572.09;;;19.03;47.74
60845;BME280;47984;51.250;6.712;2022-07-21T00:58:27;101573.13;;;19.01;47.91
60845;BME280;47984;51.250;6.712;2022-07-21T01:00:55;101564.69;;;18.94;47.83
60845;BME280;47984;51.250;6.712;2022-07-21T01:03:22;101570.91;;;18.93;48.15
60845;BME280;47984;51.250;6.712;2022-07-21T01:05:49;101582.28;;;18.94;47.88
60845;BME280;47984;51.250;6.712;2022-07-21T01:08:17;101594.59;;;18.93;48.14
60845;BME280;47984;51.250;6.712;2022-07-21T01:10:45;101582.34;;;18.92;48.21
60845;BME280;47984;51.250;6.712;2022-07-21T01:13:13;101576.38;;;18.89;48.24
60845;BME280;47984;51.250;6.712;2022-07-21T01:15:40;101587.09;;;18.85;48.81
60845;BME280;47984;51.250;6.712;2022-07-21T01:18:08;101584.69;;;18.81;48.57
60845;BME280;47984;51.250;6.712;2022-07-21T01:20:38;101582.22;;;18.78;48.59
60845;BME280;47984;51.250;6.712;2022-07-21T01:23:08;101601.66;;;18.75;48.89
60845;BME280;47984;51.250;6.712;2022-07-21T01:25:35;101595.53;;;18.75;49.34
60845;BME280;47984;51.250;6.712;2022-07-21T01:28:02;101593.97;;;18.71;49.24
60845;BME280;47984;51.250;6.712;2022-07-21T01:30:30;101587.84;;;18.70;49.32
60845;BME280;47984;51.250;6.712;2022-07-21T01:32:57;101594.13;;;18.68;49.21
60845;BME280;47984;51.250;6.712;2022-07-21T01:35:24;101595.91;;;18.67;49.37
60845;BME280;47984;51.250;6.712;2022-07-21T01:37:51;101594.22;;;18.66;49.48
60845;BME280;47984;51.250;6.712;2022-07-21T01:40:18;101588.16;;;18.64;49.81
60845;BME280;47984;51.250;6.712;2022-07-21T01:43:07;101597.00;;;18.63;49.32
60845;BME280;47984;51.250;6.712;2022-07-21T01:45:39;101602.34;;;18.61;49.12
60845;BME280;47984;51.250;6.712;2022-07-21T01:48:07;101602.56;;;18.57;49.48
60845;BME280;47984;51.250;6.712;2022-07-21T01:50:36;101604.22;;;18.59;49.23
60845;BME280;47984;51.250;6.712;2022-07-21T01:53:03;101599.00;;;18.58;49.52
60845;BME280;47984;51.250;6.712;2022-07-21T01:55:30;101600.00;;;18.55;49.43
60845;BME280;47984;51.250;6.712;2022-07-21T01:58:01;101602.56;;;18.57;49.66
60845;BME280;47984;51.250;6.712;2022-07-21T02:00:28;101605.38;;;18.54;49.61
60845;BME280;47984;51.250;6.712;2022-07-21T02:02:55;101593.97;;;18.53;49.58
60845;BME280;47984;51.250;6.712;2022-07-21T02:05:22;101594.13;;;18.50;49.87
60845;BME280;47984;51.250;6.712;2022-07-21T02:07:50;101595.94;;;18.50;49.81
60845;BME280;47984;51.250;6.712;2022-07-21T02:10:17;101589.94;;;18.46;49.83
60845;BME280;47984;51.250;6.712;2022-07-21T02:12:44;101586.44;;;18.46;49.85
60845;BME280;47984;51.250;6.712;2022-07-21T02:15:12;101586.44;;;18.46;50.30
60845;BME280;47984;51.250;6.712;2022-07-21T02:17:39;101583.91;;;18.44;50.24
60845;BME280;47984;51.250;6.712;2022-07-21T02:20:07;101588.22;;;18.45;50.13
60845;BME280;47984;51.250;6.712;2022-07-21T02:22:34;101583.13;;;18.42;50.50
60845;BME280;47984;51.250;6.712;2022-07-21T02:25:01;101576.13;;;18.41;50.34
60845;BME280;47984;51.250;6.712;2022-07-21T02:27:28;101577.03;;;18.40;50.39
60845;BME280;47984;51.250;6.712;2022-07-21T02:29:55;101576.28;;;18.38;50.14
60845;BME280;47984;51.250;6.712;2022-07-21T02:32:22;101576.44;;;18.35;50.15
60845;BME280;47984;51.250;6.712;2022-07-21T02:34:49;101576.50;;;18.33;50.44
60845;BME280;47984;51.250;6.712;2022-07-21T02:37:17;101583.53;;;18.33;50.46
60845;BME280;47984;51.250;6.712;2022-07-21T02:39:44;101582.69;;;18.32;50.68
60845;BME280;47984;51.250;6.712;2022-07-21T02:42:12;101583.63;;;18.31;50.43
60845;BME280;47984;51.250;6.712;2022-07-21T02:44:39;101590.66;;;18.31;50.70
60845;BME280;47984;51.250;6.712;2022-07-21T02:47:09;101588.03;;;18.31;50.57
60845;BME280;47984;51.250;6.712;2022-07-21T02:49:36;101586.31;;;18.30;50.95
60845;BME280;47984;51.250;6.712;2022-07-21T02:52:04;101592.53;;;18.29;50.63
60845;BME280;47984;51.250;6.712;2022-07-21T02:54:32;101590.88;;;18.26;51.00
60845;BME280;47984;51.250;6.712;2022-07-21T02:56:59;101588.25;;;18.26;51.28
60845;BME280;47984;51.250;6.712;2022-07-21T02:59:26;101585.63;;;18.26;51.36
60845;BME280;47984;51.250;6.712;2022-07-21T03:01:54;101576.94;;;18.24;51.47
60845;BME280;47984;51.250;6.712;2022-07-21T03:04:21;101581.34;;;18.24;51.33
60845;BME280;47984;51.250;6.712;2022-07-21T03:06:48;101572.63;;;18.23;51.03
60845;BME280;47984;51.250;6.712;2022-07-21T03:09:15;101564.78;;;18.22;51.56
60845;BME280;47984;51.250;6.712;2022-07-21T03:11:42;101566.50;;;18.23;51.32
60845;BME280;47984;51.250;6.712;2022-07-21T03:14:09;101562.25;;;18.20;51.90
60845;BME280;47984;51.250;6.712;2022-07-21T03:16:37;101564.03;;;18.20;51.78
60845;BME280;47984;51.250;6.712;2022-07-21T03:19:04;101561.44;;;18.18;51.94
60845;BME280;47984;51.250;6.712;2022-07-21T03:21:38;101563.22;;;18.17;51.92
60845;BME280;47984;51.250;6.712;2022-07-21T03:24:06;101565.06;;;18.15;51.94
60845;BME280;47984;51.250;6.712;2022-07-21T03:26:33;101559.97;;;18.12;51.67
60845;BME280;47984;51.250;6.712;2022-07-21T03:29:05;101559.13;;;18.12;52.03
60845;BME280;47984;51.250;6.712;2022-07-21T03:31:32;101555.72;;;18.10;51.99
60845;BME280;47984;51.250;6.712;2022-07-21T03:33:59;101553.25;;;18.07;51.67
60845;BME280;47984;51.250;6.712;2022-07-21T03:36:26;101544.50;;;18.06;52.47
60845;BME280;47984;51.250;6.712;2022-07-21T03:38:54;101539.38;;;18.03;51.79
60845;BME280;47984;51.250;6.712;2022-07-21T03:43:48;101543.00;;;18.01;51.75
60845;BME280;47984;51.250;6.712;2022-07-21T03:46:15;101546.50;;;18.01;52.41
60845;BME280;47984;51.250;6.712;2022-07-21T03:48:42;101548.34;;;17.99;52.26
60845;BME280;47984;51.250;6.712;2022-07-21T03:51:15;101551.97;;;17.97;51.34
60845;BME280;47984;51.250;6.712;2022-07-21T03:53:42;101552.03;;;17.95;52.12
60845;BME280;47984;51.250;6.712;2022-07-21T03:56:09;101545.94;;;17.95;52.29
60845;BME280;47984;51.250;6.712;2022-07-21T03:58:36;101546.84;;;17.93;52.19
60845;BME280;47984;51.250;6.712;2022-07-21T04:01:03;101546.94;;;17.92;51.93
60845;BME280;47984;51.250;6.712;2022-07-21T04:03:33;101541.66;;;17.92;52.32
60845;BME280;47984;51.250;6.712;2022-07-21T04:06:02;101544.31;;;17.92;52.77
60845;BME280;47984;51.250;6.712;2022-07-21T04:08:29;101538.25;;;17.90;52.17
60845;BME280;47984;51.250;6.712;2022-07-21T04:10:56;101537.41;;;17.89;52.53
60845;BME280;47984;51.250;6.712;2022-07-21T04:13:25;101537.41;;;17.89;52.57
60845;BME280;47984;51.250;6.712;2022-07-21T04:15:52;101530.59;;;17.85;52.76
60845;BME280;47984;51.250;6.712;2022-07-21T04:18:19;101535.84;;;17.85;52.35
60845;BME280;47984;51.250;6.712;2022-07-21T04:20:47;101527.25;;;17.82;52.98
60845;BME280;47984;51.250;6.712;2022-07-21T04:23:18;101529.00;;;17.81;52.49
60845;BME280;47984;51.250;6.712;2022-07-21T04:25:45;101522.91;;;17.81;52.13
60845;BME280;47984;51.250;6.712;2022-07-21T04:28:12;101527.41;;;17.79;53.21
60845;BME280;47984;51.250;6.712;2022-07-21T04:30:39;101530.94;;;17.78;52.53
60845;BME280;47984;51.250;6.712;2022-07-21T04:33:07;101529.25;;;17.77;52.90
60845;BME280;47984;51.250;6.712;2022-07-21T04:35:34;101524.78;;;17.79;52.64
60845;BME280;47984;51.250;6.712;2022-07-21T04:38:02;101523.06;;;17.78;52.89
60845;BME280;47984;51.250;6.712;2022-07-21T04:40:29;101530.19;;;17.76;53.04
60845;BME280;47984;51.250;6.712;2022-07-21T04:42:57;101532.72;;;17.77;53.27
60845;BME280;47984;51.250;6.712;2022-07-21T04:45:24;101526.66;;;17.75;53.21
60845;BME280;47984;51.250;6.712;2022-07-21T04:47:53;101531.88;;;17.77;53.13
60845;BME280;47984;51.250;6.712;2022-07-21T04:50:27;101538.97;;;17.75;53.34
60845;BME280;47984;51.250;6.712;2022-07-21T04:52:55;101537.28;;;17.74;53.07
60845;BME280;47984;51.250;6.712;2022-07-21T04:55:22;101545.97;;;17.76;53.47
60845;BME280;47984;51.250;6.712;2022-07-21T04:57:52;101545.09;;;17.75;53.31
60845;BME280;47984;51.250;6.712;2022-07-21T05:00:23;101542.44;;;17.75;53.31
60845;BME280;47984;51.250;6.712;2022-07-21T05:02:53;101554.75;;;17.75;53.72
60845;BME280;47984;51.250;6.712;2022-07-21T05:05:20;101553.84;;;17.76;53.69
60845;BME280;47984;51.250;6.712;2022-07-21T05:07:47;101554.75;;;17.75;53.39
60845;BME280;47984;51.250;6.712;2022-07-21T05:10:17;101549.44;;;17.76;53.48
60845;BME280;47984;51.250;6.712;2022-07-21T05:12:45;101555.53;;;17.77;53.38
60845;BME280;47984;51.250;6.712;2022-07-21T05:15:12;101555.53;;;17.77;53.57
60845;BME280;47984;51.250;6.712;2022-07-21T05:17:41;101564.22;;;17.79;54.05
60845;BME280;47984;51.250;6.712;2022-07-21T05:20:10;101552.78;;;17.80;54.05
60845;BME280;47984;51.250;6.712;2022-07-21T05:22:38;101544.94;;;17.78;53.85
60845;BME280;47984;51.250;6.712;2022-07-21T05:25:06;101554.56;;;17.79;53.79
60845;BME280;47984;51.250;6.712;2022-07-21T05:27:34;101549.34;;;17.78;53.78
60845;BME280;47984;51.250;6.712;2022-07-21T05:30:03;101554.59;;;17.78;53.65
60845;BME280;47984;51.250;6.712;2022-07-21T05:32:30;101557.25;;;17.78;53.87
60845;BME280;47984;51.250;6.712;2022-07-21T05:34:57;101548.50;;;17.77;54.11
60845;BME280;47984;51.250;6.712;2022-07-21T05:37:24;101556.41;;;17.77;54.04
60845;BME280;47984;51.250;6.712;2022-07-21T05:39:53;101562.50;;;17.78;53.79
60845;BME280;47984;51.250;6.712;2022-07-21T05:42:20;101556.34;;;17.79;54.15
60845;BME280;47984;51.250;6.712;2022-07-21T05:44:49;101556.34;;;17.79;53.83
60845;BME280;47984;51.250;6.712;2022-07-21T05:47:16;101551.97;;;17.78;53.83
60845;BME280;47984;51.250;6.712;2022-07-21T05:49:43;101550.19;;;17.78;54.13
60845;BME280;47984;51.250;6.712;2022-07-21T05:52:10;101552.78;;;17.80;53.83
60845;BME280;47984;51.250;6.712;2022-07-21T05:54:38;101555.31;;;17.81;54.40
60845;BME280;47984;51.250;6.712;2022-07-21T05:57:05;101556.94;;;17.84;54.16
60845;BME280;47984;51.250;6.712;2022-07-21T05:59:32;101551.69;;;17.84;54.69
60845;BME280;47984;51.250;6.712;2022-07-21T06:02:00;101555.97;;;17.86;53.80
60845;BME280;47984;51.250;6.712;2022-07-21T06:04:27;101551.50;;;17.88;54.81
60845;BME280;47984;51.250;6.712;2022-07-21T06:06:55;101554.03;;;17.90;53.90
60845;BME280;47984;51.250;6.712;2022-07-21T06:09:22;101550.78;;;17.85;54.32
60845;BME280;47984;51.250;6.712;2022-07-21T06:11:52;101562.72;;;17.92;54.42
60845;BME280;47984;51.250;6.712;2022-07-21T06:14:19;101564.41;;;17.93;54.06
60845;BME280;47984;51.250;6.712;2022-07-21T06:16:47;101564.34;;;17.95;54.68
60845;BME280;47984;51.250;6.712;2022-07-21T06:19:14;101560.78;;;17.96;54.48
60845;BME280;47984;51.250;6.712;2022-07-21T06:21:42;101560.72;;;17.97;54.22
60845;BME280;47984;51.250;6.712;2022-07-21T06:24:13;101567.69;;;17.98;54.45
60845;BME280;47984;51.250;6.712;2022-07-21T06:26:40;101565.84;;;18.00;54.43
60845;BME280;47984;51.250;6.712;2022-07-21T06:29:08;101562.28;;;18.01;54.69
60845;BME280;47984;51.250;6.712;2022-07-21T06:31:35;101563.97;;;18.02;54.65
60845;BME280;47984;51.250;6.712;2022-07-21T06:34:03;101567.38;;;18.04;54.04
60845;BME280;47984;51.250;6.712;2022-07-21T06:36:30;101558.56;;;18.05;54.58
60845;BME280;47984;51.250;6.712;2022-07-21T06:38:57;101560.28;;;18.06;54.67
60845;BME280;47984;51.250;6.712;2022-07-21T06:41:24;101554.00;;;18.09;54.46
60845;BME280;47984;51.250;6.712;2022-07-21T06:43:51;101552.16;;;18.11;54.17
60845;BME280;47984;51.250;6.712;2022-07-21T06:46:19;101547.59;;;18.14;53.92
60845;BME280;47984;51.250;6.712;2022-07-21T06:48:46;101546.66;;;18.15;54.27
60845;BME280;47984;51.250;6.712;2022-07-21T06:51:13;101541.38;;;18.15;54.55
60845;BME280;47984;51.250;6.712;2022-07-21T06:53:40;101542.88;;;18.21;54.45
60845;BME280;47984;51.250;6.712;2022-07-21T06:56:09;101558.38;;;18.27;54.55
60845;BME280;47984;51.250;6.712;2022-07-21T06:58:36;101561.53;;;18.34;54.36
60845;BME280;47984;51.250;6.712;2022-07-21T07:01:06;101571.88;;;18.38;54.29
60845;BME280;47984;51.250;6.712;2022-07-21T07:03:35;101575.16;;;18.44;54.11
60845;BME280;47984;51.250;6.712;2022-07-21T07:06:05;101574.91;;;18.48;54.36
60845;BME280;47984;51.250;6.712;2022-07-21T07:08:33;101581.66;;;18.54;54.21
60845;BME280;47984;51.250;6.712;2022-07-21T07:11:06;101579.56;;;18.60;54.35
60845;BME280;47984;51.250;6.712;2022-07-21T07:13:34;101581.06;;;18.66;54.77
60845;BME280;47984;51.250;6.712;2022-07-21T07:16:21;101582.44;;;18.73;53.68
60845;BME280;47984;51.250;6.712;2022-07-21T07:18:48;101575.22;;;18.77;53.66
60845;BME280;47984;51.250;6.712;2022-07-21T07:21:16;101578.66;;;18.79;54.28
60845;BME280;47984;51.250;6.712;2022-07-21T07:23:43;101569.66;;;18.83;53.79
60845;BME280;47984;51.250;6.712;2022-07-21T07:26:10;101572.91;;;18.88;54.01
60845;BME280;47984;51.250;6.712;2022-07-21T07:28:37;101580.66;;;18.91;53.85
60845;BME280;47984;51.250;6.712;2022-07-21T07:31:04;101582.28;;;18.94;53.73
60845;BME280;47984;51.250;6.712;2022-07-21T07:33:32;101575.06;;;18.97;53.88
60845;BME280;47984;51.250;6.712;2022-07-21T07:35:59;101567.78;;;19.02;53.83
60845;BME280;47984;51.250;6.712;2022-07-21T07:38:26;101566.59;;;19.08;53.70
60845;BME280;47984;51.250;6.712;2022-07-21T07:40:53;101569.63;;;19.18;54.26
60845;BME280;47984;51.250;6.712;2022-07-21T07:43:25;101562.09;;;19.27;53.43
60845;BME280;47984;51.250;6.712;2022-07-21T07:45:53;101559.81;;;19.37;53.69
60845;BME280;47984;51.250;6.712;2022-07-21T07:48:21;101551.56;;;19.43;53.69
60845;BME280;47984;51.250;6.712;2022-07-21T07:50:48;101560.94;;;19.49;53.25
60845;BME280;47984;51.250;6.712;2022-07-21T07:53:15;101568.59;;;19.53;53.53
60845;BME280;47984;51.250;6.712;2022-07-21T07:55:42;101572.00;;;19.56;53.28
60845;BME280;47984;51.250;6.712;2022-07-21T07:58:09;101578.03;;;19.58;52.55
60845;BME280;47984;51.250;6.712;2022-07-21T08:00:38;101573.53;;;19.60;53.05
60845;BME280;47984;51.250;6.712;2022-07-21T08:03:24;101573.47;;;19.61;52.75
60845;BME280;47984;51.250;6.712;2022-07-21T08:05:55;101569.72;;;19.65;52.62
60845;BME280;47984;51.250;6.712;2022-07-21T08:08:22;101565.00;;;19.70;52.53
60845;BME280;47984;51.250;6.712;2022-07-21T08:10:49;101557.97;;;19.71;52.59
60845;BME280;47984;51.250;6.712;2022-07-21T08:13:22;101564.59;;;19.78;52.67
60845;BME280;47984;51.250;6.712;2022-07-21T08:15:50;101558.84;;;19.87;52.91
60845;BME280;47984;51.250;6.712;2022-07-21T08:18:18;101558.50;;;19.93;52.73
60845;BME280;47984;51.250;6.712;2022-07-21T08:20:48;101557.38;;;19.97;52.24
60845;BME280;47984;51.250;6.712;2022-07-21T08:23:16;101562.41;;;20.02;52.64
60845;BME280;47984;51.250;6.712;2022-07-21T08:25:43;101563.16;;;20.04;52.17
60845;BME280;47984;51.250;6.712;2022-07-21T08:28:11;101553.56;;;20.03;51.92
60845;BME280;47984;51.250;6.712;2022-07-21T08:30:39;101564.72;;;20.08;51.81
60845;BME280;47984;51.250;6.712;2022-07-21T08:33:07;101556.78;;;20.08;51.30
60845;BME280;47984;51.250;6.712;2022-07-21T08:35:35;101554.06;;;20.10;51.68
60845;BME280;47984;51.250;6.712;2022-07-21T08:38:06;101552.00;;;20.15;51.32
60845;BME280;47984;51.250;6.712;2022-07-21T08:40:38;101558.91;;;20.17;51.70
60845;BME280;47984;51.250;6.712;2022-07-21T08:43:06;101564.56;;;20.26;51.85
60845;BME280;47984;51.250;6.712;2022-07-21T08:45:38;101566.88;;;20.32;51.41
60845;BME280;47984;51.250;6.712;2022-07-21T08:48:07;101570.88;;;20.39;51.90
60845;BME280;47984;51.250;6.712;2022-07-21T08:50:39;101566.34;;;20.41;51.14
60845;BME280;47984;51.250;6.712;2022-07-21T08:53:06;101564.28;;;20.46;50.80
60845;BME280;47984;51.250;6.712;2022-07-21T08:55:37;101558.84;;;20.49;51.27
60845;BME280;47984;51.250;6.712;2022-07-21T08:58:12;101566.69;;;20.51;50.82
60845;BME280;47984;51.250;6.712;2022-07-21T09:00:44;101566.50;;;20.54;50.65
60845;BME280;47984;51.250;6.712;2022-07-21T09:03:22;101559.44;;;20.54;51.13
60845;BME280;47984;51.250;6.712;2022-07-21T09:06:03;101568.88;;;20.58;50.46
60845;BME280;47984;51.250;6.712;2022-07-21T09:08:40;101575.00;;;20.59;51.04
60845;BME280;47984;51.250;6.712;2022-07-21T09:11:28;101574.06;;;20.60;50.39
60845;BME280;47984;51.250;6.712;2022-07-21T09:14:15;101568.78;;;20.60;50.63
60845;BME280;47984;51.250;6.712;2022-07-21T09:16:49;101562.56;;;20.61;50.30
60845;BME280;47984;51.250;6.712;2022-07-21T09:19:34;101556.94;;;20.67;50.64
60845;BME280;47984;51.250;6.712;2022-07-21T09:22:15;101550.22;;;20.76;49.94
60845;BME280;47984;51.250;6.712;2022-07-21T09:24:50;101550.72;;;20.82;49.88
60845;BME280;47984;51.250;6.712;2022-07-21T09:27:23;101568.56;;;20.93;49.42
60845;BME280;47984;51.250;6.712;2022-07-21T09:30:00;101558.38;;;21.01;49.71
60845;BME280;47984;51.250;6.712;2022-07-21T09:32:30;101572.06;;;21.08;49.06
60845;BME280;47984;51.250;6.712;2022-07-21T09:35:07;101572.66;;;21.13;49.60
60845;BME280;47984;51.250;6.712;2022-07-21T09:37:38;101569.13;;;21.12;48.79
60845;BME280;47984;51.250;6.712;2022-07-21T09:40:10;101572.66;;;21.13;48.87
60845;BME280;47984;51.250;6.712;2022-07-21T09:42:49;101575.31;;;21.13;49.46
60845;BME280;47984;51.250;6.712;2022-07-21T09:45:18;101576.06;;;21.15;49.00
60845;BME280;47984;51.250;6.712;2022-07-21T09:47:46;101575.31;;;21.13;48.88
60845;BME280;47984;51.250;6.712;2022-07-21T09:50:16;101573.59;;;21.12;49.33
60845;BME280;47984;51.250;6.712;2022-07-21T09:52:55;101573.59;;;21.12;49.11
60845;BME280;47984;51.250;6.712;2022-07-21T09:55:25;101572.72;;;21.11;49.12
60845;BME280;47984;51.250;6.712;2022-07-21T09:57:55;101578.13;;;21.10;48.23
60845;BME280;47984;51.250;6.712;2022-07-21T10:00:22;101585.28;;;21.08;48.42
60845;BME280;47984;51.250;6.712;2022-07-21T10:02:50;101582.84;;;21.05;49.06
60845;BME280;47984;51.250;6.712;2022-07-21T10:05:21;101591.03;;;21.00;48.59
60845;BME280;47984;51.250;6.712;2022-07-21T10:08:01;101593.19;;;20.94;48.72
60845;BME280;47984;51.250;6.712;2022-07-21T10:10:31;101591.69;;;20.89;49.18
60845;BME280;47984;51.250;6.712;2022-07-21T10:13:19;101591.28;;;20.81;48.16
60845;BME280;47984;51.250;6.712;2022-07-21T10:15:50;101595.91;;;20.78;48.26
60845;BME280;47984;51.250;6.712;2022-07-21T10:18:20;101591.09;;;20.70;49.11
60845;BME280;47984;51.250;6.712;2022-07-21T10:20:58;101595.72;;;20.66;48.60
60845;BME280;47984;51.250;6.712;2022-07-21T10:23:38;101602.75;;;20.66;49.10
60845;BME280;47984;51.250;6.712;2022-07-21T10:26:10;101614.63;;;20.59;48.83
60845;BME280;47984;51.250;6.712;2022-07-21T10:28:38;101607.06;;;20.53;48.67
60845;BME280;47984;51.250;6.712;2022-07-21T10:31:25;101618.81;;;20.47;49.34
60845;BME280;47984;51.250;6.712;2022-07-21T10:33:59;101616.69;;;20.38;49.40
60845;BME280;47984;51.250;6.712;2022-07-21T10:41:48;101613.91;;;20.25;49.65
60845;BME280;47984;51.250;6.712;2022-07-21T10:47:20;101624.81;;;20.19;49.93
60845;BME280;47984;51.250;6.712;2022-07-21T10:50:03;101628.47;;;20.16;49.60
60845;BME280;47984;51.250;6.712;2022-07-21T10:58:23;101621.75;;;20.11;50.01
60845;BME280;47984;51.250;6.712;2022-07-21T11:01:22;101625.59;;;20.05;50.32
60845;BME280;47984;51.250;6.712;2022-07-21T11:04:13;101628.75;;;19.96;50.49
60845;BME280;47984;51.250;6.712;2022-07-21T11:06:47;101629.09;;;19.90;50.76
60845;BME280;47984;51.250;6.712;2022-07-21T11:09:16;101632.81;;;19.86;50.45
60845;BME280;47984;51.250;6.712;2022-07-21T11:14:17;101633.09;;;19.80;50.80
60845;BME280;47984;51.250;6.712;2022-07-21T11:19:46;101629.88;;;19.74;50.58
60845;BME280;47984;51.250;6.712;2022-07-21T11:22:28;101634.38;;;19.72;50.81
60845;BME280;47984;51.250;6.712;2022-07-21T11:24:58;101632.75;;;19.70;51.77
60845;BME280;47984;51.250;6.712;2022-07-21T11:27:35;101637.19;;;19.69;51.49
60845;BME280;47984;51.250;6.712;2022-07-21T11:30:07;101627.66;;;19.67;51.20
60845;BME280;47984;51.250;6.712;2022-07-21T11:32:34;101626.13;;;19.63;51.25
60845;BME280;47984;51.250;6.712;2022-07-21T11:35:05;101622.69;;;19.61;51.60
60845;BME280;47984;51.250;6.712;2022-07-21T11:37:42;101623.75;;;19.58;51.85
60845;BME280;47984;51.250;6.712;2022-07-21T11:40:19;101625.66;;;19.54;52.15
60845;BME280;47984;51.250;6.712;2022-07-21T11:42:51;101617.16;;;19.49;51.82
60845;BME280;47984;51.250;6.712;2022-07-21T11:45:23;101625.16;;;19.48;51.61
60845;BME280;47984;51.250;6.712;2022-07-21T11:47:54;101629.72;;;19.44;51.77
60845;BME280;47984;51.250;6.712;2022-07-21T11:50:21;101620.19;;;19.42;52.59
60845;BME280;47984;51.250;6.712;2022-07-21T11:52:49;101628.44;;;19.36;52.24
60845;BME280;47984;51.250;6.712;2022-07-21T11:55:17;101629.53;;;19.32;52.42
60845;BME280;47984;51.250;6.712;2022-07-21T11:57:46;101622.63;;;19.29;52.22
60845;BME280;47984;51.250;6.712;2022-07-21T12:00:15;101629.75;;;19.27;52.26
60845;BME280;47984;51.250;6.712;2022-07-21T12:02:47;101633.34;;;19.26;52.20
60845;BME280;47984;51.250;6.712;2022-07-21T12:05:16;101634.34;;;19.23;52.39
60845;BME280;47984;51.250;6.712;2022-07-21T12:07:49;101623.13;;;19.20;52.94
60845;BME280;47984;51.250;6.712;2022-07-21T12:10:25;101626.75;;;19.17;52.87
60845;BME280;47984;51.250;6.712;2022-07-21T12:13:01;101636.28;;;19.20;53.23
60845;BME280;47984;51.250;6.712;2022-07-21T12:15:36;101631.19;;;19.17;53.39
60845;BME280;47984;51.250;6.712;2022-07-21T12:18:07;101628.69;;;19.14;53.51
60845;BME280;47984;51.250;6.712;2022-07-21T12:20:41;101623.72;;;19.07;53.34
60845;BME280;47984;51.250;6.712;2022-07-21T12:23:29;101632.56;;;19.06;53.28
60845;BME280;47984;51.250;6.712;2022-07-21T12:26:00;101638.94;;;19.02;53.16
60845;BME280;47984;51.250;6.712;2022-07-21T12:28:50;101633.72;;;19.01;53.52
60845;BME280;47984;51.250;6.712;2022-07-21T12:31:21;101639.16;;;18.98;53.57
60845;BME280;47984;51.250;6.712;2022-07-21T12:33:53;101646.28;;;18.96;53.33
60845;BME280;47984;51.250;6.712;2022-07-21T12:36:46;101644.66;;;18.93;53.30
60845;BME280;47984;51.250;6.712;2022-07-21T12:39:20;101646.69;;;18.88;53.58
60845;BME280;47984;51.250;6.712;2022-07-21T12:42:28;101648.53;;;18.86;52.95
60845;BME280;47984;51.250;6.712;2022-07-21T12:44:55;101644.50;;;18.79;53.70
60845;BME280;47984;51.250;6.712;2022-07-21T12:47:23;101643.88;;;18.74;53.38
60845;BME280;47984;51.250;6.712;2022-07-21T12:49:58;101637.91;;;18.70;53.27
60845;BME280;47984;51.250;6.712;2022-07-21T12:52:39;101640.00;;;18.64;53.63
60845;BME280;47984;51.250;6.712;2022-07-21T12:55:08;101644.41;;;18.63;53.91
60845;BME280;47984;51.250;6.712;2022-07-21T12:57:35;101641.13;;;18.58;53.60
60845;BME280;47984;51.250;6.712;2022-07-21T13:00:04;101639.50;;;18.55;53.63
60845;BME280;47984;51.250;6.712;2022-07-21T13:05:14;101635.28;;;18.53;53.48
60845;BME280;47984;51.250;6.712;2022-07-21T13:07:41;101629.28;;;18.49;53.42
60845;BME280;47984;51.250;6.712;2022-07-21T13:10:09;101631.91;;;18.49;54.09
60845;BME280;47984;51.250;6.712;2022-07-21T13:12:36;101642.38;;;18.51;53.89
60845;BME280;47984;51.250;6.712;2022-07-21T13:15:05;101638.06;;;18.50;53.82
60845;BME280;47984;51.250;6.712;2022-07-21T13:17:32;101644.31;;;18.47;54.24
60845;BME280;47984;51.250;6.712;2022-07-21T13:19:59;101649.59;;;18.47;54.37
60845;BME280;47984;51.250;6.712;2022-07-21T13:22:33;101648.09;;;18.42;54.02
60845;BME280;47984;51.250;6.712;2022-07-21T13:25:00;101637.72;;;18.37;54.12
60845;BME280;47984;51.250;6.712;2022-07-21T13:27:27;101646.50;;;18.37;54.47
60845;BME280;47984;51.250;6.712;2022-07-21T13:29:54;101653.63;;;18.35;53.93